createdAt,value
2018-09-29T00:00:29.528Z,14.30
2018-09-29T00:02:58.829Z,12.23
2018-09-29T00:05:27.557Z,14.30
2018-09-29T00:07:56.578Z,10.30
2018-09-29T00:10:25.343Z,13.10
2018-09-29T00:12:54.133Z,7.57
2018-09-29T00:15:22.697Z,12.53
2018-09-29T00:17:51.271Z,11.03
2018-09-29T00:20:19.951Z,10.00
2018-09-29T00:22:48.577Z,11.40
2018-09-29T00:25:17.218Z,9.93
2018-09-29T00:27:45.811Z,10.20
2018-09-29T00:30:14.351Z,10.40
2018-09-29T00:32:42.896Z,10.20
2018-09-29T00:35:11.741Z,14.60
2018-09-29T00:37:40.287Z,8.87
2018-09-29T00:40:09.402Z,8.60
2018-09-29T00:42:37.970Z,9.03
2018-09-29T00:45:06.711Z,11.37
2018-09-29T00:47:35.596Z,10.23
2018-09-29T00:50:04.247Z,9.57
2018-09-29T00:52:32.825Z,12.20
2018-09-29T00:55:01.383Z,10.93
2018-09-29T00:57:30.075Z,13.00
2018-09-29T00:59:58.637Z,10.97
2018-09-29T01:02:27.191Z,10.80
2018-09-29T01:04:55.763Z,9.70
2018-09-29T01:07:24.460Z,12.57
2018-09-29T01:09:53.239Z,14.93
2018-09-29T01:12:21.805Z,11.40
2018-09-29T01:14:50.545Z,10.80
2018-09-29T01:17:19.128Z,9.87
2018-09-29T01:19:47.697Z,10.33
2018-09-29T01:22:16.207Z,14.07
2018-09-29T01:24:44.945Z,10.80
2018-09-29T01:27:14.067Z,11.63
2018-09-29T01:29:43.234Z,9.60
2018-09-29T01:32:11.812Z,8.33
2018-09-29T01:34:40.522Z,11.43
2018-09-29T01:37:09.282Z,10.10
2018-09-29T01:39:37.830Z,10.40
2018-09-29T01:42:06.425Z,10.77
2018-09-29T01:44:35.022Z,11.03
2018-09-29T01:47:03.616Z,11.10
2018-09-29T01:49:32.186Z,14.13
2018-09-29T01:52:00.813Z,9.13
2018-09-29T01:54:29.996Z,9.13
2018-09-29T01:56:58.559Z,10.67
2018-09-29T01:59:27.173Z,11.60
2018-09-29T02:01:55.743Z,10.00
2018-09-29T02:04:24.357Z,14.83
2018-09-29T02:06:52.888Z,9.87
2018-09-29T02:09:21.476Z,13.33
2018-09-29T02:11:50.166Z,11.63
2018-09-29T02:14:18.766Z,10.10
2018-09-29T02:16:48.437Z,10.43
2018-09-29T02:19:17.265Z,9.17
2018-09-29T02:21:47.806Z,13.43
2018-09-29T02:27:40.279Z,10.57
2018-09-29T02:30:09.141Z,7.57
2018-09-29T02:32:37.886Z,9.63
2018-09-29T02:35:06.907Z,10.33
2018-09-29T02:37:35.515Z,9.00
2018-09-29T02:40:04.150Z,6.60
2018-09-29T02:42:32.784Z,10.37
2018-09-29T02:45:01.422Z,9.70
2018-09-29T02:47:30.056Z,8.40
2018-09-29T02:49:58.645Z,11.83
2018-09-29T02:52:27.551Z,6.63
2018-09-29T02:54:56.099Z,9.10
2018-09-29T02:57:24.683Z,7.67
2018-09-29T02:59:53.499Z,7.77
2018-09-29T03:02:22.158Z,7.43
2018-09-29T03:04:50.774Z,8.33
2018-09-29T03:07:19.354Z,8.33
2018-09-29T03:09:48.126Z,6.27
2018-09-29T03:12:16.946Z,8.00
2018-09-29T03:14:45.552Z,6.53
2018-09-29T03:17:14.397Z,6.17
2018-09-29T03:19:42.915Z,6.83
2018-09-29T03:22:11.489Z,9.33
2018-09-29T03:24:40.234Z,6.13
2018-09-29T03:27:08.802Z,6.90
2018-09-29T03:29:37.423Z,7.23
2018-09-29T03:32:06.078Z,7.43
2018-09-29T03:34:34.787Z,5.03
2018-09-29T03:37:03.572Z,7.20
2018-09-29T03:39:32.161Z,8.20
2018-09-29T03:42:00.906Z,5.97
2018-09-29T03:44:29.555Z,7.50
2018-09-29T03:46:58.274Z,6.23
2018-09-29T03:49:27.008Z,8.23
2018-09-29T03:51:55.588Z,8.63
2018-09-29T03:54:24.121Z,7.87
2018-09-29T03:56:52.672Z,5.90
2018-09-29T03:59:21.382Z,8.00
2018-09-29T04:01:49.950Z,9.73
2018-09-29T04:04:19.345Z,7.83
2018-09-29T04:06:47.932Z,7.17
2018-09-29T04:09:16.644Z,8.20
2018-09-29T04:11:45.208Z,6.67
2018-09-29T04:14:14.488Z,8.03
2018-09-29T04:16:43.331Z,5.83
2018-09-29T04:19:12.146Z,7.07
2018-09-29T04:21:46.496Z,9.50
2018-09-29T04:24:16.343Z,6.73
2018-09-29T04:26:45.034Z,7.70
2018-09-29T04:29:15.276Z,5.90
2018-09-29T04:31:44.324Z,8.00
2018-09-29T04:34:13.893Z,8.40
2018-09-29T04:36:43.216Z,10.47
2018-09-29T04:39:13.283Z,6.53
2018-09-29T04:41:42.138Z,4.93
2018-09-29T04:44:11.307Z,6.70
2018-09-29T04:46:40.954Z,9.80
2018-09-29T04:49:09.594Z,9.57
2018-09-29T04:51:38.133Z,6.53
2018-09-29T04:54:07.210Z,8.37
2018-09-29T04:56:35.802Z,10.03
2018-09-29T04:59:04.357Z,6.23
2018-09-29T05:01:32.894Z,7.53
2018-09-29T05:04:01.437Z,10.00
2018-09-29T05:06:30.029Z,7.43
2018-09-29T05:08:58.850Z,5.97
2018-09-29T05:11:27.432Z,7.47
2018-09-29T05:13:55.976Z,9.27
2018-09-29T05:16:24.614Z,10.47
2018-09-29T05:18:53.337Z,10.80
2018-09-29T05:21:21.968Z,7.77
2018-09-29T05:23:50.639Z,7.00
2018-09-29T05:26:19.183Z,10.00
2018-09-29T05:28:47.689Z,8.30
2018-09-29T05:31:16.198Z,6.80
2018-09-29T05:33:44.680Z,7.57
2018-09-29T05:36:13.116Z,7.40
2018-09-29T05:38:41.883Z,6.67
2018-09-29T05:41:10.369Z,7.13
2018-09-29T05:43:38.992Z,7.67
2018-09-29T05:46:07.497Z,7.23
2018-09-29T05:48:35.973Z,10.03
2018-09-29T05:51:04.537Z,12.13
2018-09-29T05:53:33.220Z,8.67
2018-09-29T05:56:01.926Z,7.03
2018-09-29T05:58:30.942Z,7.40
2018-09-29T06:00:59.479Z,8.77
2018-09-29T06:03:27.927Z,9.83
2018-09-29T06:05:56.842Z,9.07
2018-09-29T06:08:25.250Z,8.93
2018-09-29T06:10:53.771Z,8.73
2018-09-29T06:13:22.241Z,7.20
2018-09-29T06:15:50.887Z,7.30
2018-09-29T06:18:19.362Z,8.47
2018-09-29T06:20:47.964Z,7.63
2018-09-29T06:23:16.553Z,9.03
2018-09-29T06:25:45.118Z,7.20
2018-09-29T06:28:13.589Z,7.87
2018-09-29T06:30:42.054Z,5.63
2018-09-29T06:33:10.767Z,8.00
2018-09-29T06:35:39.386Z,8.40
2018-09-29T06:38:07.935Z,6.93
2018-09-29T06:40:36.947Z,10.57
2018-09-29T06:43:05.407Z,8.23
2018-09-29T06:45:33.987Z,7.77
2018-09-29T06:48:02.628Z,6.03
2018-09-29T06:50:31.378Z,4.23
2018-09-29T06:52:59.838Z,5.97
2018-09-29T06:55:29.425Z,5.50
2018-09-29T06:57:57.900Z,7.17
2018-09-29T07:00:26.354Z,4.60
2018-09-29T07:02:54.877Z,4.67
2018-09-29T07:05:23.447Z,6.30
2018-09-29T07:07:52.017Z,5.50
2018-09-29T07:10:21.191Z,4.63
2018-09-29T07:12:49.865Z,6.93
2018-09-29T07:15:18.371Z,7.70
2018-09-29T07:17:47.023Z,5.17
2018-09-29T07:20:15.596Z,3.93
2018-09-29T07:22:44.292Z,4.23
2018-09-29T07:25:12.735Z,4.13
2018-09-29T07:27:41.179Z,3.60
2018-09-29T07:30:09.669Z,5.37
2018-09-29T07:32:38.320Z,3.73
2018-09-29T07:35:06.862Z,4.33
2018-09-29T07:37:35.345Z,4.07
2018-09-29T07:40:03.872Z,5.20
2018-09-29T07:42:32.435Z,4.10
2018-09-29T07:45:00.963Z,4.43
2018-09-29T07:47:29.628Z,3.97
2018-09-29T07:49:58.106Z,3.90
2018-09-29T07:52:26.586Z,3.87
2018-09-29T07:54:55.278Z,5.20
2018-09-29T07:57:23.759Z,4.47
2018-09-29T07:59:52.309Z,3.97
2018-09-29T08:02:20.787Z,3.73
2018-09-29T08:04:49.361Z,2.73
2018-09-29T08:07:17.843Z,4.73
2018-09-29T08:09:46.362Z,5.37
2018-09-29T08:12:14.954Z,4.17
2018-09-29T08:14:43.573Z,2.70
2018-09-29T08:17:12.051Z,4.20
2018-09-29T08:19:40.791Z,3.20
2018-09-29T08:22:09.763Z,4.53
2018-09-29T08:24:38.267Z,4.47
2018-09-29T08:27:07.378Z,4.83
2018-09-29T08:29:35.814Z,2.33
2018-09-29T08:32:04.371Z,2.63
2018-09-29T08:34:32.954Z,3.77
2018-09-29T08:37:01.543Z,1.87
2018-09-29T08:39:30.292Z,3.23
2018-09-29T08:41:58.737Z,2.10
2018-09-29T08:44:27.354Z,1.90
2018-09-29T08:46:55.878Z,2.00
2018-09-29T08:49:24.653Z,1.00
2018-09-29T08:51:53.193Z,1.63
2018-09-29T08:54:21.799Z,1.90
2018-09-29T08:56:50.409Z,1.93
2018-09-29T08:59:18.989Z,2.00
2018-09-29T09:01:47.639Z,2.50
2018-09-29T09:04:16.992Z,2.03
2018-09-29T09:06:47.054Z,1.80
2018-09-29T09:09:15.648Z,2.40
2018-09-29T09:11:44.824Z,4.00
2018-09-29T09:14:13.918Z,2.13
2018-09-29T09:16:42.484Z,2.67
2018-09-29T09:19:10.947Z,2.63
2018-09-29T09:21:39.928Z,1.87
2018-09-29T09:24:09.604Z,1.90
2018-09-29T09:26:38.271Z,2.03
2018-09-29T09:29:07.301Z,4.07
2018-09-29T09:31:35.830Z,2.77
2018-09-29T09:34:04.463Z,2.27
2018-09-29T09:36:33.010Z,2.10
2018-09-29T09:39:01.551Z,1.53
2018-09-29T09:41:30.080Z,2.30
2018-09-29T09:43:58.659Z,2.43
2018-09-29T09:46:28.065Z,1.67
2018-09-29T09:48:56.542Z,1.50
2018-09-29T09:51:25.422Z,1.90
2018-09-29T09:53:53.905Z,0.87
2018-09-29T09:56:22.546Z,2.17
2018-09-29T09:58:51.029Z,2.50
2018-09-29T10:02:27.714Z,3.83
2018-09-29T10:04:56.242Z,2.40
2018-09-29T10:07:24.732Z,1.70
2018-09-29T10:09:53.236Z,1.80
2018-09-29T10:12:21.722Z,3.13
2018-09-29T10:14:50.501Z,3.43
2018-09-29T10:17:19.330Z,2.13
2018-09-29T10:19:47.890Z,3.03
2018-09-29T10:22:16.411Z,2.70
2018-09-29T10:24:44.996Z,1.63
2018-09-29T10:27:13.456Z,2.30
2018-09-29T10:29:41.920Z,2.73
2018-09-29T10:32:10.473Z,1.80
2018-09-29T10:34:38.970Z,1.03
2018-09-29T10:37:07.470Z,1.57
2018-09-29T10:39:36.014Z,3.03
2018-09-29T10:42:04.501Z,2.30
2018-09-29T10:44:32.984Z,1.50
2018-09-29T10:47:01.521Z,2.50
2018-09-29T10:49:30.311Z,0.87
2018-09-29T10:51:58.946Z,2.07
2018-09-29T10:54:27.442Z,0.83
2018-09-29T10:56:55.929Z,1.10
2018-09-29T10:59:24.602Z,0.80
2018-09-29T11:01:53.117Z,1.60
2018-09-29T11:04:22.317Z,1.17
2018-09-29T11:06:50.787Z,1.03
2018-09-29T11:09:19.306Z,8.03
2018-09-29T11:11:47.808Z,14.83
2018-09-29T11:14:17.255Z,4.40
2018-09-29T11:16:45.758Z,11.03
2018-09-29T11:19:14.226Z,9.53
2018-09-29T11:21:42.854Z,8.93
2018-09-29T11:24:11.422Z,31.30
2018-09-29T11:26:40.015Z,23.67
2018-09-29T11:29:08.628Z,9.00
2018-09-29T11:31:37.260Z,2.23
2018-09-29T11:34:06.033Z,1.30
2018-09-29T11:36:34.727Z,19.50
2018-09-29T11:39:04.142Z,55.47
2018-09-29T11:41:33.604Z,6.67
2018-09-29T11:44:02.220Z,8.07
2018-09-29T11:46:30.842Z,10.20
2018-09-29T11:48:59.400Z,1.67
2018-09-29T11:51:27.945Z,3.23
2018-09-29T11:53:56.465Z,11.83
2018-09-29T11:56:25.371Z,7.87
2018-09-29T11:58:53.956Z,2.43
2018-09-29T12:01:22.895Z,3.47
2018-09-29T12:03:51.441Z,8.70
2018-09-29T12:06:20.247Z,3.13
2018-09-29T12:08:48.839Z,2.10
2018-09-29T12:11:17.758Z,1.77
2018-09-29T12:13:46.342Z,1.80
2018-09-29T12:16:15.473Z,2.40
2018-09-29T12:18:44.166Z,4.87
2018-09-29T12:21:13.657Z,2.33
2018-09-29T12:23:42.236Z,1.90
2018-09-29T12:26:10.809Z,1.43
2018-09-29T12:28:39.305Z,1.83
2018-09-29T12:31:08.066Z,2.57
2018-09-29T12:33:36.852Z,1.23
2018-09-29T12:36:05.539Z,1.27
2018-09-29T12:38:34.086Z,1.53
2018-09-29T12:41:02.601Z,3.57
2018-09-29T12:43:31.063Z,2.30
2018-09-29T12:45:59.565Z,2.53
2018-09-29T12:48:28.737Z,2.53
2018-09-29T12:50:57.205Z,3.57
2018-09-29T12:53:25.654Z,2.17
2018-09-29T12:55:54.135Z,7.70
2018-09-29T12:58:22.615Z,9.30
2018-09-29T13:00:51.610Z,7.27
2018-09-29T13:03:20.271Z,2.43
2018-09-29T13:05:49.158Z,1.53
2018-09-29T13:08:17.641Z,4.27
2018-09-29T13:10:46.197Z,1.63
2018-09-29T13:13:14.692Z,1.90
2018-09-29T13:15:43.151Z,4.27
2018-09-29T13:18:11.695Z,7.53
2018-09-29T13:20:40.147Z,4.20
2018-09-29T13:23:08.639Z,3.93
2018-09-29T13:25:37.126Z,3.03
2018-09-29T13:28:05.729Z,3.20
2018-09-29T13:30:34.206Z,1.83
2018-09-29T13:33:02.702Z,0.93
2018-09-29T13:35:31.181Z,1.60
2018-09-29T13:37:59.698Z,1.20
2018-09-29T13:40:28.202Z,1.20
2018-09-29T13:42:56.738Z,2.30
2018-09-29T13:45:25.226Z,9.83
2018-09-29T13:47:53.829Z,36.67
2018-09-29T13:50:22.381Z,2.90
2018-09-29T13:52:50.908Z,2.03
2018-09-29T13:55:19.377Z,2.37
2018-09-29T13:57:47.861Z,5.17
2018-09-29T14:00:16.318Z,3.80
2018-09-29T14:02:44.805Z,7.20
2018-09-29T14:05:13.322Z,4.57
2018-09-29T14:07:42.086Z,2.97
2018-09-29T14:10:10.586Z,4.53
2018-09-29T14:12:39.459Z,14.97
2018-09-29T14:15:08.181Z,7.97
2018-09-29T14:17:36.668Z,11.03
2018-09-29T14:20:06.264Z,15.07
2018-09-29T14:22:34.769Z,12.97
2018-09-29T14:25:03.556Z,17.47
2018-09-29T14:27:32.026Z,7.37
2018-09-29T14:30:00.724Z,9.80
2018-09-29T14:32:29.590Z,9.43
2018-09-29T14:34:58.609Z,9.20
2018-09-29T14:37:27.603Z,14.47
2018-09-29T14:39:56.081Z,17.90
2018-09-29T14:42:24.646Z,9.17
2018-09-29T14:44:53.651Z,3.20
2018-09-29T14:47:22.304Z,3.07
2018-09-29T14:49:51.671Z,2.20
2018-09-29T14:52:20.568Z,1.63
2018-09-29T14:54:49.708Z,6.17
2018-09-29T14:57:18.691Z,3.20
2018-09-29T14:59:47.594Z,4.90
2018-09-29T15:02:16.536Z,3.00
2018-09-29T15:04:45.466Z,2.00
2018-09-29T15:07:14.373Z,2.90
2018-09-29T15:09:43.363Z,3.30
2018-09-29T15:12:12.171Z,2.90
2018-09-29T15:14:41.150Z,3.03
2018-09-29T15:17:09.803Z,13.87
2018-09-29T15:19:38.574Z,27.67
2018-09-29T15:22:07.641Z,4.13
2018-09-29T15:24:36.314Z,38.50
2018-09-29T15:27:05.182Z,10.80
2018-09-29T15:29:34.168Z,12.60
2018-09-29T15:32:03.545Z,5.13
2018-09-29T15:34:32.222Z,3.60
2018-09-29T15:37:01.348Z,3.23
2018-09-29T15:39:30.272Z,4.70
2018-09-29T15:41:59.001Z,5.30
2018-09-29T15:44:27.482Z,5.10
2018-09-29T15:46:56.166Z,8.43
2018-09-29T15:49:24.635Z,5.50
2018-09-29T15:51:53.110Z,16.53
2018-09-29T15:54:21.708Z,10.33
2018-09-29T15:56:50.160Z,17.07
2018-09-29T15:59:18.707Z,12.67
2018-09-29T16:01:47.289Z,10.20
2018-09-29T16:04:15.783Z,10.77
2018-09-29T16:06:44.290Z,10.57
2018-09-29T16:09:12.753Z,7.63
2018-09-29T16:11:42.411Z,7.23
2018-09-29T16:14:10.902Z,7.27
2018-09-29T16:16:39.393Z,8.50
2018-09-29T16:19:07.833Z,9.77
2018-09-29T16:21:36.384Z,12.17
2018-09-29T16:24:04.833Z,17.47
2018-09-29T16:26:33.434Z,13.97
2018-09-29T16:29:02.218Z,20.87
2018-09-29T16:31:30.708Z,15.80
2018-09-29T16:33:59.283Z,14.13
2018-09-29T16:36:27.986Z,15.67
2018-09-29T16:38:56.590Z,18.47
2018-09-29T16:41:25.098Z,23.07
2018-09-29T16:43:53.643Z,29.07
2018-09-29T16:46:22.203Z,35.67
2018-09-29T16:48:50.702Z,30.83
2018-09-29T16:51:19.218Z,28.57
2018-09-29T16:53:47.703Z,65.77
2018-09-29T16:56:16.178Z,43.37
2018-09-29T16:58:44.813Z,33.77
2018-09-29T17:01:14.110Z,37.97
2018-09-29T17:03:43.187Z,38.43
2018-09-29T17:06:11.974Z,50.70
2018-09-29T17:08:40.494Z,57.80
2018-09-29T17:11:08.987Z,48.60
2018-09-29T17:13:37.534Z,48.70
2018-09-29T17:16:06.411Z,44.87
2018-09-29T17:18:35.143Z,37.53
2018-09-29T17:21:03.693Z,35.07
2018-09-29T17:23:32.197Z,35.23
2018-09-29T17:26:00.733Z,37.00
2018-09-29T17:28:29.275Z,35.40
2018-09-29T17:30:58.514Z,30.97
2018-09-29T17:33:27.244Z,54.57
2018-09-29T17:35:55.822Z,60.53
2018-09-29T17:38:24.329Z,69.43
2018-09-29T17:40:52.865Z,47.37
2018-09-29T17:43:21.567Z,89.33
2018-09-29T17:45:50.217Z,118.73
2018-09-29T17:48:18.693Z,149.47
2018-09-29T17:50:47.960Z,144.83
2018-09-29T17:53:16.513Z,91.47
2018-09-29T17:55:45.047Z,66.70
2018-09-29T17:58:13.590Z,54.30
2018-09-29T18:00:42.060Z,52.77
2018-09-29T18:03:10.540Z,44.30
2018-09-29T18:05:39.023Z,54.03
2018-09-29T18:08:07.773Z,47.70
2018-09-29T18:10:36.266Z,48.40
2018-09-29T18:13:04.785Z,44.77
2018-09-29T18:15:33.538Z,46.50
2018-09-29T18:18:02.035Z,51.77
2018-09-29T18:20:30.495Z,56.03
2018-09-29T18:23:00.782Z,59.50
2018-09-29T18:25:30.768Z,55.97
2018-09-29T18:28:01.295Z,59.90
2018-09-29T18:30:29.998Z,61.87
2018-09-29T18:32:58.685Z,61.37
2018-09-29T18:35:27.212Z,55.00
2018-09-29T18:37:55.757Z,58.03
2018-09-29T18:40:24.270Z,53.57
2018-09-29T18:42:52.958Z,52.60
2018-09-29T18:45:21.562Z,50.00
2018-09-29T18:47:50.444Z,39.03
2018-09-29T18:50:19.133Z,34.13
2018-09-29T18:52:47.828Z,30.83
2018-09-29T18:55:16.325Z,29.00
2018-09-29T18:57:45.006Z,24.90
2018-09-29T19:00:13.623Z,25.10
2018-09-29T19:02:42.129Z,23.17
2018-09-29T19:05:10.806Z,22.97
2018-09-29T19:07:39.475Z,25.43
2018-09-29T19:10:07.992Z,30.67
2018-09-29T19:12:36.438Z,38.83
2018-09-29T19:15:05.226Z,52.33
2018-09-29T19:17:34.735Z,60.17
2018-09-29T19:20:04.113Z,55.77
2018-09-29T19:22:33.451Z,58.93
2018-09-29T19:25:02.392Z,42.27
2018-09-29T19:27:31.262Z,34.27
2018-09-29T19:30:00.748Z,35.83
2018-09-29T19:32:29.867Z,35.40
2018-09-29T19:34:58.985Z,82.93
2018-09-29T19:37:28.160Z,162.27
2018-09-29T19:39:57.930Z,321.40
2018-09-29T19:42:27.078Z,151.33
2018-09-29T19:44:55.615Z,122.60
2018-09-29T19:47:24.244Z,97.67
2018-09-29T19:49:52.813Z,102.93
2018-09-29T19:52:21.430Z,51.83
2018-09-29T19:54:50.049Z,46.93
2018-09-29T19:57:18.528Z,58.73
2018-09-29T19:59:47.027Z,43.97
2018-09-29T20:02:15.530Z,32.43
2018-09-29T20:04:43.989Z,30.60
2018-09-29T20:07:12.500Z,55.20
2018-09-29T20:09:41.138Z,52.10
2018-09-29T20:12:09.698Z,69.10
2018-09-29T20:14:38.361Z,69.13
2018-09-29T20:17:07.865Z,71.53
2018-09-29T20:19:36.644Z,77.63
2018-09-29T20:22:08.577Z,74.70
2018-09-29T20:24:37.618Z,74.30
2018-09-29T20:27:06.851Z,74.97
2018-09-29T20:29:35.665Z,76.63
2018-09-29T20:32:04.258Z,73.83
2018-09-29T20:34:32.775Z,76.13
2018-09-29T20:37:01.474Z,68.63
2018-09-29T20:39:30.250Z,67.17
2018-09-29T20:41:59.172Z,67.03
2018-09-29T20:44:28.500Z,63.17
2018-09-29T20:47:24.155Z,62.93
2018-09-29T20:49:54.318Z,39.80
2018-09-29T20:52:23.281Z,32.77
2018-09-29T20:54:51.967Z,28.00
2018-09-29T20:57:20.510Z,27.17
2018-09-29T20:59:49.868Z,22.57
2018-09-29T21:02:18.586Z,26.10
2018-09-29T21:04:47.298Z,22.27
2018-09-29T21:07:16.107Z,20.73
2018-09-29T21:09:44.776Z,20.67
2018-09-29T21:12:13.561Z,21.93
2018-09-29T21:14:42.539Z,19.33
2018-09-29T21:17:11.762Z,21.33
2018-09-29T21:19:40.552Z,21.30
2018-09-29T21:22:09.377Z,21.77
2018-09-29T21:24:38.314Z,20.10
2018-09-29T21:27:07.297Z,19.50
2018-09-29T21:29:36.003Z,20.93
2018-09-29T21:32:04.680Z,21.70
2018-09-29T21:34:33.463Z,24.80
2018-09-29T21:37:02.148Z,22.70
2018-09-29T21:39:30.959Z,26.10
2018-09-29T21:42:00.089Z,20.57
2018-09-29T21:44:28.618Z,19.13
2018-09-29T21:46:57.211Z,24.63
2018-09-29T21:49:25.772Z,23.50
2018-09-29T21:51:54.324Z,21.90
2018-09-29T21:54:23.140Z,23.47
2018-09-29T21:56:52.005Z,23.93
2018-09-29T21:59:20.823Z,26.40
2018-09-29T22:01:49.818Z,48.93
2018-09-29T22:04:18.570Z,55.37
2018-09-29T22:06:47.269Z,26.50
2018-09-29T22:09:23.054Z,41.23
2018-09-29T22:11:52.623Z,29.23
2018-09-29T22:14:21.285Z,56.20
2018-09-29T22:16:49.835Z,59.70
2018-09-29T22:19:18.621Z,65.73
2018-09-29T22:21:47.640Z,76.50
2018-09-29T22:24:16.342Z,143.97
2018-09-29T22:26:45.185Z,125.90
2018-09-29T22:29:13.905Z,121.60
2018-09-29T22:31:42.679Z,117.53
2018-09-29T22:34:11.357Z,112.80
2018-09-29T22:36:40.164Z,65.07
2018-09-29T22:39:10.243Z,58.47
2018-09-29T22:41:38.970Z,52.00
2018-09-29T22:44:08.181Z,39.67
2018-09-29T22:46:36.826Z,43.03
2018-09-29T22:49:06.027Z,39.27
2018-09-29T22:51:34.654Z,33.60
2018-09-29T22:54:03.397Z,29.23
2018-09-29T22:56:32.051Z,25.60
2018-09-29T22:59:00.658Z,24.93
2018-09-29T23:01:29.209Z,28.40
2018-09-29T23:03:57.883Z,22.90
2018-09-29T23:06:27.033Z,27.23
2018-09-29T23:08:55.763Z,37.63
2018-09-29T23:11:24.532Z,41.47
2018-09-29T23:13:54.493Z,58.97
2018-09-29T23:16:23.113Z,80.50
2018-09-29T23:18:51.661Z,76.50
2018-09-29T23:21:20.650Z,72.70
2018-09-29T23:23:49.339Z,65.10
2018-09-29T23:26:17.858Z,67.53
2018-09-29T23:28:46.545Z,57.10
2018-09-29T23:31:15.242Z,53.13
2018-09-29T23:33:43.783Z,57.40
2018-09-29T23:36:12.609Z,64.27
2018-09-29T23:38:41.174Z,67.27
2018-09-29T23:41:09.760Z,60.20
2018-09-29T23:43:38.466Z,59.87
2018-09-29T23:46:07.159Z,66.87
2018-09-29T23:48:36.669Z,72.47
2018-09-29T23:51:05.211Z,70.63
2018-09-29T23:53:33.793Z,68.13
2018-09-29T23:56:02.450Z,68.10
2018-09-29T23:58:30.997Z,57.87
